Time;durP1;ratioP1;P1;durP2;ratioP2;P2;SDS_P1;SDS_P2;PMS_P1;PMS_P2;Temp;Humidity;BMP_temperature;BMP_pressure;BME280_temperature;BME280_humidity;BME280_pressure;Samples;Min_cycle;Max_cycle;Signal;HPM_P1;HPM_P2
2022/05/06 00:01:50;;;;;;;0.20;0.20;;;;;;;-0.07;89.34;97576.94;4936718;29;20585;-65
2022/05/06 00:04:16;;;;;;;0.20;0.20;;;;;;;-0.11;89.29;97571.09;4936947;29;20122;-66
2022/05/06 00:06:42;;;;;;;0.20;0.20;;;;;;;-0.11;89.35;97578.34;4951638;28;20115;-66
2022/05/06 00:09:08;;;;;;;0.85;0.85;;;;;;;-0.12;89.54;97574.81;4937045;29;20035;-65
2022/05/06 00:11:34;;;;;;;0.20;0.20;;;;;;;-0.15;89.38;97577.91;4936872;29;20039;-65
2022/05/06 00:13:59;;;;;;;0.20;0.20;;;;;;;-0.12;89.47;97587.47;4936888;29;20043;-64
2022/05/06 00:16:26;;;;;;;0.20;0.20;;;;;;;-0.12;89.56;97584.78;4936647;29;20031;-65
2022/05/06 00:18:53;;;;;;;0.20;0.20;;;;;;;-0.11;89.55;97594.53;4936153;29;20032;-63
2022/05/06 00:21:19;;;;;;;0.20;0.20;;;;;;;-0.11;89.51;97595.38;4936566;29;20546;-64
2022/05/06 00:23:45;;;;;;;0.20;0.20;;;;;;;-0.13;89.42;97605.53;4936937;29;20106;-67
2022/05/06 00:26:11;;;;;;;0.75;0.75;;;;;;;-0.14;89.50;97594.94;4936692;29;20090;-67
2022/05/06 00:28:37;;;;;;;0.20;0.20;;;;;;;-0.17;89.51;97609.66;4936559;29;20035;-65
2022/05/06 00:31:04;;;;;;;0.20;0.20;;;;;;;-0.19;89.60;97609.84;4936203;29;20036;-64
2022/05/06 00:33:31;;;;;;;0.20;0.20;;;;;;;-0.23;89.46;97618.53;4936294;29;20032;-64
2022/05/06 00:36:02;;;;;;;0.20;0.20;;;;;;;-0.24;89.44;97619.56;4936509;29;20040;-62
2022/05/06 00:38:29;;;;;;;0.20;0.20;;;;;;;-0.23;89.66;97629.31;4936295;29;20051;-63
2022/05/06 00:40:54;;;;;;;0.20;0.20;;;;;;;-0.26;89.65;97630.53;4936177;29;20038;-63
2022/05/06 00:43:23;;;;;;;0.20;0.20;;;;;;;-0.25;89.71;97624.13;4936350;29;20035;-63
2022/05/06 00:45:54;;;;;;;0.35;0.35;;;;;;;-0.30;89.49;97631.13;4935789;29;20086;-63
2022/05/06 00:48:27;;;;;;;0.20;0.20;;;;;;;-0.40;89.52;97645.78;4935731;29;20043;-64
2022/05/06 00:50:59;;;;;;;0.20;0.20;;;;;;;-0.43;89.86;97656.94;4936338;29;20058;-62
2022/05/06 00:53:26;;;;;;;0.40;0.40;;;;;;;-0.43;89.84;97634.53;4936703;29;20070;-61
2022/05/06 00:55:52;;;;;;;0.20;0.20;;;;;;;-0.44;89.83;97652.59;4935814;29;20438;-62
2022/05/06 00:58:19;;;;;;;0.20;0.20;;;;;;;-0.46;89.88;97668.09;4950124;29;20039;-64
2022/05/06 01:00:46;;;;;;;0.20;0.20;;;;;;;-0.46;89.97;97665.41;4936599;29;20035;-62
2022/05/06 01:03:12;;;;;;;0.28;0.28;;;;;;;-0.46;89.99;97681.59;4950479;29;20446;-63
2022/05/06 01:05:41;;;;;;;0.20;0.20;;;;;;;-0.43;89.86;97681.19;4936046;29;20048;-61
2022/05/06 01:08:08;;;;;;;0.30;0.30;;;;;;;-0.45;89.88;97693.22;4935940;29;20044;-62
2022/05/06 01:10:35;;;;;;;0.20;0.20;;;;;;;-0.43;89.96;97681.19;4935457;29;20063;-61
2022/05/06 01:13:01;;;;;;;0.43;0.38;;;;;;;-0.46;89.94;97689.69;4935407;29;20071;-63
2022/05/06 01:15:29;;;;;;;0.20;0.20;;;;;;;-0.43;89.76;97697.38;4935387;29;20107;-62
2022/05/06 01:17:57;;;;;;;0.25;0.25;;;;;;;-0.36;89.92;97700.16;4935351;29;20046;-62
2022/05/06 01:20:25;;;;;;;0.20;0.20;;;;;;;-0.33;89.81;97712.44;4935554;29;20035;-61
2022/05/06 01:22:58;;;;;;;0.20;0.20;;;;;;;-0.30;89.78;97709.34;4935330;29;20075;-62
2022/05/06 01:25:25;;;;;;;0.30;0.30;;;;;;;-0.33;89.62;97732.13;4952291;29;20433;-61
2022/05/06 01:27:55;;;;;;;0.20;0.20;;;;;;;-0.32;89.60;97736.53;4954000;29;20034;-62
2022/05/06 01:30:36;;;;;;;0.20;0.20;;;;;;;-0.22;89.71;97737.03;4968700;28;20046;-62
2022/05/06 01:33:06;;;;;;;0.20;0.20;;;;;;;-0.19;89.44;97746.63;4949553;28;20544;-63
2022/05/06 01:35:38;;;;;;;0.20;0.20;;;;;;;-0.08;89.40;97759.56;4949965;29;20038;-61
2022/05/06 01:38:05;;;;;;;0.20;0.20;;;;;;;0.05;89.47;97764.28;4968071;28;20043;-60
2022/05/06 01:40:54;;;;;;;0.20;0.20;;;;;;;0.14;89.06;97773.06;4953544;28;20077;-61
2022/05/06 01:43:24;;;;;;;0.20;0.20;;;;;;;0.19;88.82;97781.41;4953090;28;20413;-61
2022/05/06 01:45:52;;;;;;;0.20;0.20;;;;;;;0.32;88.68;97778.00;4953192;28;20486;-62
2022/05/06 01:48:20;;;;;;;0.40;0.40;;;;;;;0.38;88.42;97801.53;4952548;28;20078;-63
2022/05/06 01:50:48;;;;;;;0.47;0.43;;;;;;;0.51;88.28;97795.41;4952498;28;20150;-64
2022/05/06 01:53:16;;;;;;;6.47;0.63;;;;;;;0.59;87.91;97808.78;4952745;28;20061;-62
2022/05/06 01:55:46;;;;;;;0.20;0.20;;;;;;;0.67;87.82;97800.50;4953208;28;20087;-62
2022/05/06 01:58:13;;;;;;;0.30;0.30;;;;;;;0.78;87.50;97801.84;4951361;29;20085;-61
2022/05/06 02:00:39;;;;;;;0.20;0.20;;;;;;;0.93;87.17;97814.41;4953124;28;20038;-62
2022/05/06 02:03:05;;;;;;;0.22;0.22;;;;;;;1.08;86.96;97807.03;4953220;28;20042;-62
2022/05/06 02:05:31;;;;;;;0.20;0.20;;;;;;;1.14;86.51;97824.34;4953489;28;20038;-63
2022/05/06 02:07:57;;;;;;;0.22;0.22;;;;;;;1.19;86.26;97824.56;4952477;28;20038;-62
2022/05/06 02:10:25;;;;;;;0.50;0.50;;;;;;;1.47;86.21;97826.38;4952977;28;20126;-62
2022/05/06 02:12:51;;;;;;;0.30;0.30;;;;;;;1.89;85.54;97846.94;4952314;28;20035;-62
2022/05/06 02:15:18;;;;;;;0.40;0.40;;;;;;;2.76;85.20;97847.09;4952660;28;20405;-61
2022/05/06 02:17:44;;;;;;;0.20;0.20;;;;;;;3.76;83.49;97827.06;4952228;28;20628;-63
2022/05/06 02:20:12;;;;;;;0.40;0.40;;;;;;;4.72;82.02;97857.88;4952319;28;20558;-62
2022/05/06 02:22:42;;;;;;;0.35;0.35;;;;;;;5.29;79.93;97853.44;4953719;28;20039;-63
2022/05/06 02:25:09;;;;;;;0.20;0.20;;;;;;;6.75;77.13;97860.84;4954058;28;20031;-63
2022/05/06 02:27:36;;;;;;;0.20;0.20;;;;;;;8.38;73.16;97851.94;4953684;28;20123;-63
2022/05/06 02:35:31;;;;;;;0.20;0.20;;;;;;;11.57;62.80;97864.31;4953342;29;20475;-63
2022/05/06 02:37:57;;;;;;;0.30;0.30;;;;;;;12.05;62.14;97886.34;4952864;28;20118;-63
2022/05/06 02:40:22;;;;;;;0.20;0.20;;;;;;;12.56;61.80;97888.50;4953182;28;20039;-64
2022/05/06 02:42:48;;;;;;;0.20;0.20;;;;;;;12.69;61.25;97889.06;4955376;28;20039;-62
2022/05/06 02:45:14;;;;;;;0.20;0.20;;;;;;;12.51;62.41;97887.66;4953219;28;20533;-64
2022/05/06 02:47:40;;;;;;;0.20;0.20;;;;;;;12.33;63.29;97902.72;4952799;28;20042;-64
2022/05/06 02:50:06;;;;;;;0.20;0.20;;;;;;;12.24;63.30;97902.41;4952234;28;20035;-63
2022/05/06 02:52:31;;;;;;;0.20;0.20;;;;;;;12.22;63.80;97904.59;4953718;28;20462;-64
2022/05/06 02:54:57;;;;;;;0.25;0.25;;;;;;;12.48;62.76;97907.47;4953354;28;20047;-63
2022/05/06 02:57:23;;;;;;;0.20;0.20;;;;;;;12.83;62.28;97926.03;4953289;28;20066;-64
2022/05/06 02:59:48;;;;;;;0.30;0.30;;;;;;;13.48;62.88;97920.09;4953957;28;20453;-62
2022/05/06 03:02:55;;;;;;;0.22;0.22;;;;;;;14.51;61.69;97914.34;4969303;28;20039;-64
2022/05/06 03:12:47;;;;;;;0.20;0.20;;;;;;;16.16;59.07;97932.59;4953928;28;20113;-65
2022/05/06 03:15:14;;;;;;;0.20;0.20;;;;;;;16.39;58.71;97962.25;4956517;28;20039;-65
2022/05/06 03:17:39;;;;;;;0.20;0.20;;;;;;;17.24;58.34;97956.22;4956693;28;20035;-62
2022/05/06 03:20:08;;;;;;;0.20;0.20;;;;;;;17.22;57.77;97964.84;4956844;28;20043;-61
2022/05/06 03:22:46;;;;;;;0.25;0.25;;;;;;;17.24;59.03;97959.00;4956792;28;20114;-62
2022/05/06 03:25:12;;;;;;;0.20;0.20;;;;;;;17.78;62.04;97979.00;4957026;29;20441;-61
2022/05/06 03:30:22;;;;;;;0.20;0.20;;;;;;;18.61;62.93;97983.94;4956704;29;20070;-61
2022/05/06 03:32:49;;;;;;;0.10;0.10;;;;;;;18.32;59.80;97988.63;4957022;28;20070;-61
2022/05/06 03:35:15;;;;;;;0.43;0.43;;;;;;;18.08;60.40;98004.63;4956928;28;20035;-61
2022/05/06 03:37:41;;;;;;;0.20;0.20;;;;;;;18.35;60.86;97999.16;4956816;28;20035;-62
2022/05/06 03:40:07;;;;;;;0.10;0.10;;;;;;;18.48;61.34;98008.63;4957456;28;20061;-62
2022/05/06 03:42:32;;;;;;;0.10;0.10;;;;;;;19.17;62.24;98005.06;4956599;28;20078;-62
2022/05/06 03:44:59;;;;;;;0.20;0.20;;;;;;;19.13;61.14;98022.72;4956518;28;20035;-60
2022/05/06 03:47:25;;;;;;;0.30;0.30;;;;;;;19.15;62.00;98020.44;4956189;28;20133;-61
2022/05/06 03:52:35;;;;;;;0.25;0.25;;;;;;;19.25;58.04;98021.03;4953936;29;20059;-62
2022/05/06 03:55:01;;;;;;;0.20;0.20;;;;;;;18.93;57.33;98029.50;4954017;29;20048;-63
2022/05/06 03:57:27;;;;;;;1.48;0.20;;;;;;;18.65;57.19;98032.22;4955228;29;20188;-64
2022/05/06 03:59:54;;;;;;;0.10;0.10;;;;;;;19.16;57.47;98028.47;4954414;28;20509;-61
2022/05/06 04:02:20;;;;;;;0.17;0.17;;;;;;;19.55;56.94;98052.13;4937150;29;20517;-62
2022/05/06 04:04:46;;;;;;;0.32;0.32;;;;;;;20.56;58.89;98051.13;4936914;29;20044;-62
2022/05/06 04:07:13;;;;;;;0.20;0.20;;;;;;;21.27;57.89;98048.31;4936464;29;20039;-64
2022/05/06 04:09:39;;;;;;;0.20;0.20;;;;;;;21.15;56.55;98067.66;4936110;29;20031;-64
2022/05/06 04:12:05;;;;;;;0.93;0.15;;;;;;;20.77;57.03;98062.56;4935773;29;20042;-62
2022/05/06 04:14:30;;;;;;;0.10;0.10;;;;;;;20.92;58.86;98078.06;4936072;29;20035;-62
2022/05/06 04:16:56;;;;;;;0.10;0.10;;;;;;;20.68;57.22;98086.81;4936850;29;20031;-63
2022/05/06 04:19:22;;;;;;;0.20;0.20;;;;;;;21.11;59.26;98075.03;4936838;29;20402;-61
2022/05/06 04:24:32;;;;;;;0.25;0.25;;;;;;;22.25;59.56;98087.25;4935810;29;20118;-62
2022/05/06 04:26:57;;;;;;;0.50;0.50;;;;;;;21.98;57.12;98094.81;4936866;29;20115;-64
2022/05/06 04:29:23;;;;;;;0.10;0.10;;;;;;;22.05;57.50;98103.53;4936845;29;20039;-64
2022/05/06 04:31:49;;;;;;;0.10;0.10;;;;;;;21.85;57.15;98118.16;4951259;29;20558;-62
2022/05/06 04:34:15;;;;;;;0.30;0.30;;;;;;;21.20;56.69;98140.13;4936766;29;20036;-63
2022/05/06 04:36:42;;;;;;;0.40;0.40;;;;;;;21.24;57.03;98129.94;4936746;29;20066;-62
2022/05/06 04:39:07;;;;;;;0.20;0.20;;;;;;;21.76;57.15;98123.72;4936448;29;20040;-61
2022/05/06 04:41:33;;;;;;;0.55;0.55;;;;;;;21.68;56.05;98119.75;4936420;29;20570;-62
2022/05/06 04:43:59;;;;;;;0.52;0.20;;;;;;;21.54;56.11;98135.84;4936433;29;20028;-62
2022/05/06 04:46:24;;;;;;;0.20;0.20;;;;;;;21.16;56.52;98134.34;4936683;29;20530;-63
2022/05/06 04:48:50;;;;;;;0.20;0.20;;;;;;;20.77;57.05;98135.09;4935725;29;20426;-62
2022/05/06 04:51:16;;;;;;;0.22;0.22;;;;;;;20.43;57.05;98156.00;4936184;29;20040;-61
2022/05/06 04:53:41;;;;;;;0.20;0.20;;;;;;;20.55;57.34;98139.50;4935985;29;20570;-62
2022/05/06 04:56:07;;;;;;;0.20;0.20;;;;;;;20.67;57.08;98152.94;4936286;29;20529;-61
2022/05/06 04:58:33;;;;;;;0.20;0.20;;;;;;;20.46;56.94;98164.59;4936189;29;20066;-63
2022/05/06 05:00:59;;;;;;;0.22;0.22;;;;;;;20.10;57.14;98157.03;4936215;29;20035;-65
2022/05/06 05:03:24;;;;;;;0.20;0.20;;;;;;;20.20;57.34;98166.31;4936541;29;20059;-61
2022/05/06 05:05:50;;;;;;;0.32;0.22;;;;;;;20.29;57.27;98168.03;4935954;29;20079;-60
2022/05/06 05:08:16;;;;;;;0.30;0.30;;;;;;;20.25;57.22;98172.59;4935914;29;20035;-61
2022/05/06 05:10:41;;;;;;;2.10;0.20;;;;;;;20.03;58.19;98173.38;4935963;29;20486;-62
2022/05/06 05:13:07;;;;;;;0.10;0.10;;;;;;;17.81;58.74;98175.53;4935874;29;20035;-61
2022/05/06 05:15:33;;;;;;;0.43;0.40;;;;;;;14.57;60.51;98178.44;4935898;29;20043;-62
2022/05/06 05:17:59;;;;;;;0.20;0.20;;;;;;;12.13;64.61;98186.91;4935259;29;20039;-60
2022/05/06 05:20:25;;;;;;;3.47;0.40;;;;;;;10.41;68.73;98201.38;4935813;29;20031;-65
2022/05/06 05:22:51;;;;;;;0.20;0.20;;;;;;;9.37;71.43;98211.47;4935702;29;20039;-61
2022/05/06 05:25:16;;;;;;;0.38;0.32;;;;;;;8.48;72.66;98200.69;4935749;29;20043;-61
2022/05/06 05:27:42;;;;;;;1.45;0.50;;;;;;;7.72;73.83;98199.28;4935839;29;20414;-62
2022/05/06 05:30:10;;;;;;;0.45;0.40;;;;;;;7.24;75.72;98216.47;4935770;29;20147;-61
2022/05/06 05:32:37;;;;;;;0.30;0.30;;;;;;;6.95;76.84;98210.72;4935739;29;20027;-61
2022/05/06 05:35:03;;;;;;;0.30;0.30;;;;;;;6.62;77.69;98205.59;4935396;29;20046;-61
2022/05/06 05:37:29;;;;;;;0.40;0.40;;;;;;;6.41;78.63;98228.66;4934253;29;20055;-61
2022/05/06 05:39:55;;;;;;;1.02;0.63;;;;;;;6.25;79.36;98222.66;4935133;29;20036;-62
2022/05/06 05:42:24;;;;;;;0.20;0.20;;;;;;;6.13;80.00;98230.72;4935668;29;20450;-63
2022/05/06 05:50:18;;;;;;;1.60;0.40;;;;;;;5.55;81.00;98239.00;4935620;29;20084;-62
2022/05/06 05:52:45;;;;;;;0.60;0.60;;;;;;;5.48;81.54;98233.59;4935045;29;20511;-62
2022/05/06 05:55:11;;;;;;;0.20;0.20;;;;;;;5.34;81.70;98234.69;4935159;29;20039;-61
2022/05/06 05:57:38;;;;;;;0.20;0.20;;;;;;;5.28;82.14;98220.06;4935524;29;20063;-61
2022/05/06 06:00:05;;;;;;;0.20;0.20;;;;;;;5.29;82.77;98273.44;4935021;29;20035;-61
2022/05/06 06:02:31;;;;;;;0.30;0.30;;;;;;;5.30;83.09;98247.06;4934974;29;20099;-62
2022/05/06 06:04:57;;;;;;;0.40;0.40;;;;;;;5.26;83.22;98254.81;4934905;29;20043;-63
2022/05/06 06:07:23;;;;;;;0.30;0.30;;;;;;;5.26;83.64;98260.28;4933774;29;20463;-63
2022/05/06 06:09:49;;;;;;;0.10;0.10;;;;;;;5.37;84.38;98245.16;4935139;29;20040;-62
2022/05/06 06:12:15;;;;;;;0.20;0.20;;;;;;;5.31;83.92;98265.06;4934979;29;20035;-61
2022/05/06 06:14:41;;;;;;;0.20;0.20;;;;;;;5.26;84.03;98276.59;4935735;29;20046;-62
2022/05/06 06:17:07;;;;;;;0.20;0.20;;;;;;;5.43;84.72;98280.53;4934874;29;20410;-61
2022/05/06 06:19:33;;;;;;;0.60;0.60;;;;;;;5.60;84.77;98294.50;4934435;29;20036;-62
2022/05/06 06:21:59;;;;;;;0.17;0.17;;;;;;;5.61;84.52;98281.72;4934945;29;20036;-61
2022/05/06 06:24:36;;;;;;;0.17;0.17;;;;;;;5.55;84.39;98294.31;4935289;29;20494;-65
2022/05/06 06:27:02;;;;;;;0.20;0.20;;;;;;;5.50;84.42;98288.66;4934951;29;20039;-60
2022/05/06 06:29:29;;;;;;;0.30;0.30;;;;;;;5.39;84.22;98290.19;4935268;29;20046;-62
2022/05/06 06:31:55;;;;;;;2.60;0.52;;;;;;;5.40;84.73;98301.88;4934688;29;20031;-61
2022/05/06 06:34:21;;;;;;;0.20;0.20;;;;;;;5.55;85.10;98302.47;4935034;29;20055;-61
2022/05/06 06:36:46;;;;;;;0.20;0.20;;;;;;;5.57;84.87;98307.72;4934807;29;20463;-61
2022/05/06 06:39:12;;;;;;;0.20;0.20;;;;;;;5.56;84.98;98301.41;4938552;29;20519;-60
2022/05/06 06:41:38;;;;;;;0.50;0.50;;;;;;;5.56;84.94;98317.75;4938326;29;20046;-61
2022/05/06 06:44:03;;;;;;;0.30;0.30;;;;;;;5.64;84.96;98318.56;4938493;29;20031;-61
2022/05/06 06:46:32;;;;;;;0.30;0.30;;;;;;;5.67;84.96;98320.84;4938591;29;20035;-63
2022/05/06 06:48:58;;;;;;;0.20;0.20;;;;;;;5.87;85.63;98307.16;4937901;29;20032;-61
2022/05/06 06:51:24;;;;;;;0.28;0.28;;;;;;;6.10;85.67;98325.75;4938216;29;20118;-62
2022/05/06 06:53:50;;;;;;;0.25;0.25;;;;;;;6.27;85.50;98326.91;4938013;29;20199;-62
2022/05/06 06:56:16;;;;;;;0.20;0.20;;;;;;;6.68;85.59;98324.72;4938204;29;20040;-62
2022/05/06 06:58:41;;;;;;;0.52;0.30;;;;;;;6.88;85.14;98318.28;4952763;29;20054;-61
2022/05/06 07:01:07;;;;;;;0.20;0.20;;;;;;;6.82;84.64;98330.94;4938394;29;20042;-63
2022/05/06 07:03:33;;;;;;;0.20;0.20;;;;;;;6.78;84.99;98324.25;4938635;29;20505;-65
2022/05/06 07:14:25;;;;;;;0.20;0.20;;;;;;;6.43;84.96;98346.50;4936944;29;20055;-61
2022/05/06 07:16:52;;;;;;;0.20;0.20;;;;;;;6.60;85.36;98339.47;4938345;29;20035;-61
2022/05/06 07:19:20;;;;;;;0.63;0.55;;;;;;;6.77;85.27;98347.97;4939410;29;20035;-62
2022/05/06 07:21:45;;;;;;;0.70;0.40;;;;;;;6.88;84.95;98346.41;4942635;29;20035;-61
2022/05/06 07:24:11;;;;;;;0.40;0.40;;;;;;;7.07;84.95;98333.66;4940631;28;20043;-60
2022/05/06 07:26:37;;;;;;;0.20;0.20;;;;;;;7.51;84.83;98350.88;4945211;28;20046;-60
2022/05/06 07:29:02;;;;;;;0.20;0.20;;;;;;;7.82;84.44;98350.97;4963481;28;20043;-59
2022/05/06 07:31:28;;;;;;;0.20;0.20;;;;;;;7.76;83.85;98363.63;4961456;28;20435;-61
2022/05/06 07:33:54;;;;;;;0.20;0.20;;;;;;;7.84;84.10;98355.09;4974343;28;20515;-61
2022/05/06 07:36:20;;;;;;;0.20;0.20;;;;;;;7.88;84.00;98350.03;4969008;28;20039;-60
2022/05/06 07:38:45;;;;;;;0.20;0.20;;;;;;;7.92;83.61;98366.81;4955884;28;20047;-63
2022/05/06 07:41:11;;;;;;;0.20;0.20;;;;;;;8.14;83.82;98365.28;4955646;28;20039;-61
2022/05/06 07:43:37;;;;;;;0.20;0.20;;;;;;;8.33;83.78;98395.31;4952030;28;20162;-62
2022/05/06 07:46:03;;;;;;;0.20;0.20;;;;;;;8.47;83.24;98371.41;4947014;29;20118;-61
2022/05/06 07:48:28;;;;;;;0.55;0.55;;;;;;;8.51;83.38;98373.44;4954046;28;20478;-62
2022/05/06 07:50:54;;;;;;;0.30;0.30;;;;;;;8.48;83.48;98389.47;4954656;28;20039;-61
2022/05/06 07:53:20;;;;;;;0.25;0.25;;;;;;;8.45;83.28;98392.66;4950671;29;20074;-61
2022/05/06 07:55:46;;;;;;;0.20;0.20;;;;;;;8.34;82.74;98386.88;4952543;29;20062;-60
2022/05/06 07:58:12;;;;;;;0.20;0.20;;;;;;;8.16;82.57;98392.41;4952888;29;20031;-60
2022/05/06 08:00:37;;;;;;;0.22;0.22;;;;;;;8.22;82.86;98388.75;4952293;29;20038;-61
2022/05/06 08:05:47;;;;;;;0.20;0.20;;;;;;;8.45;82.14;98399.00;4950705;29;20081;-62
2022/05/06 08:08:14;;;;;;;0.20;0.20;;;;;;;8.41;81.93;98395.00;4952465;29;20125;-63
2022/05/06 08:10:40;;;;;;;0.20;0.20;;;;;;;8.33;82.23;98401.66;4952508;29;20035;-61
2022/05/06 08:13:06;;;;;;;0.20;0.20;;;;;;;8.46;82.42;98410.75;4952514;28;20035;-64
2022/05/06 08:15:32;;;;;;;0.20;0.20;;;;;;;8.64;82.37;98404.41;4953042;29;20085;-62
2022/05/06 08:17:58;;;;;;;0.57;0.20;;;;;;;8.57;82.25;98421.75;4951863;28;20027;-62
2022/05/06 08:20:24;;;;;;;0.20;0.20;;;;;;;8.50;82.43;98417.44;4954365;28;20050;-63
2022/05/06 08:22:49;;;;;;;0.20;0.20;;;;;;;8.48;82.22;98420.41;4952461;29;20066;-61
2022/05/06 08:25:15;;;;;;;0.10;0.10;;;;;;;8.56;82.45;98424.72;4951889;28;20039;-60
2022/05/06 08:27:43;;;;;;;0.20;0.20;;;;;;;8.66;82.34;98421.44;4951683;29;20083;-61
2022/05/06 08:30:12;;;;;;;1.10;0.47;;;;;;;8.66;82.05;98427.75;4966775;28;20090;-61
2022/05/06 08:32:39;;;;;;;0.20;0.20;;;;;;;8.58;81.84;98430.78;4952189;29;20038;-61
2022/05/06 08:35:05;;;;;;;0.20;0.20;;;;;;;8.69;81.58;98420.97;4952509;28;20054;-61
2022/05/06 08:37:45;;;;;;;0.20;0.20;;;;;;;8.64;81.39;98426.31;4952222;28;20035;-62
2022/05/06 08:40:26;;;;;;;0.10;0.10;;;;;;;8.82;81.45;98422.66;4952830;29;20038;-61
2022/05/06 08:42:52;;;;;;;0.15;0.15;;;;;;;8.88;81.88;98422.59;4952583;28;20042;-61
2022/05/06 08:50:54;;;;;;;0.20;0.20;;;;;;;8.23;82.78;98450.59;4952753;29;20070;-60
2022/05/06 08:53:28;;;;;;;0.13;0.13;;;;;;;8.11;83.07;98457.88;4952153;28;20063;-63
2022/05/06 08:55:56;;;;;;;0.20;0.20;;;;;;;8.11;83.18;98455.94;4952090;29;20512;-62
2022/05/06 08:58:24;;;;;;;0.20;0.20;;;;;;;8.07;82.66;98462.97;4967008;28;20035;-61
2022/05/06 09:00:59;;;;;;;0.28;0.28;;;;;;;8.15;82.69;98475.50;4952342;28;20386;-61
2022/05/06 09:03:25;;;;;;;0.20;0.20;;;;;;;8.36;82.34;98469.56;4948582;29;20062;-61
2022/05/06 09:05:52;;;;;;;0.20;0.20;;;;;;;8.64;81.93;98472.81;4950211;28;20089;-64
2022/05/06 09:08:20;;;;;;;0.20;0.20;;;;;;;9.02;81.36;98468.94;4951967;29;20130;-62
2022/05/06 09:11:07;;;;;;;0.88;0.88;;;;;;;8.98;81.28;98473.19;4951857;29;20035;-62
2022/05/06 09:13:35;;;;;;;0.65;0.40;;;;;;;8.87;81.77;98483.06;4948788;29;20133;-63
2022/05/06 09:16:41;;;;;;;0.20;0.20;;;;;;;8.55;81.81;98469.56;4951617;28;20126;-64
2022/05/06 09:19:25;;;;;;;0.40;0.40;;;;;;;8.33;82.97;98485.59;4950407;29;20043;-61
2022/05/06 09:22:03;;;;;;;;;;;;;;;8.29;83.78;98495.31;4949834;29;20043;-62
2022/05/06 09:24:30;;;;;;;0.40;0.40;;;;;;;8.35;84.09;98492.50;4950445;28;19924;-60
2022/05/06 09:27:10;;;;;;;0.20;0.20;;;;;;;8.57;83.64;98481.97;4951818;28;20043;-63
2022/05/06 09:29:41;;;;;;;2.10;0.52;;;;;;;8.69;83.09;98484.75;4951210;29;20051;-64
2022/05/06 09:32:34;;;;;;;0.10;0.10;;;;;;;8.63;82.59;98493.03;4951973;28;20043;-62
2022/05/06 09:35:12;;;;;;;0.20;0.20;;;;;;;8.45;82.42;98474.75;4962880;28;20501;-62
2022/05/06 09:37:49;;;;;;;0.47;0.40;;;;;;;8.28;82.39;98513.63;4948805;29;20569;-62
2022/05/06 09:40:21;;;;;;;0.20;0.20;;;;;;;8.24;82.34;98502.31;4950372;28;20031;-62
2022/05/06 09:42:58;;;;;;;0.15;0.15;;;;;;;8.38;81.95;98505.72;4951784;29;20039;-64
2022/05/06 09:45:33;;;;;;;0.10;0.10;;;;;;;8.46;81.58;98509.25;4952286;29;20035;-62
2022/05/06 09:48:03;;;;;;;0.10;0.10;;;;;;;8.45;81.27;98508.44;4951680;29;20524;-61
2022/05/06 09:50:36;;;;;;;0.20;0.20;;;;;;;8.22;81.38;98528.22;4952920;29;20035;-62
2022/05/06 09:53:07;;;;;;;0.20;0.20;;;;;;;8.18;81.26;98546.16;4952320;29;20142;-62
2022/05/06 09:55:36;;;;;;;0.20;0.20;;;;;;;8.45;80.85;98530.31;4952239;29;20038;-62
2022/05/06 09:58:02;;;;;;;0.40;0.40;;;;;;;8.78;79.96;98523.59;4952226;28;20031;-61
2022/05/06 10:00:29;;;;;;;0.20;0.20;;;;;;;8.85;79.16;98518.88;4952654;28;20090;-63
2022/05/06 10:02:56;;;;;;;0.10;0.10;;;;;;;8.97;79.10;98529.88;4952400;29;20143;-62
2022/05/06 10:05:24;;;;;;;1.55;0.35;;;;;;;9.24;78.82;98513.91;4952568;28;20034;-61
2022/05/06 10:07:53;;;;;;;0.20;0.20;;;;;;;9.55;78.36;98522.91;4952179;29;20031;-64
2022/05/06 10:10:26;;;;;;;0.20;0.20;;;;;;;9.72;78.03;98534.03;4952171;28;20437;-61
2022/05/06 10:12:56;;;;;;;0.20;0.20;;;;;;;9.55;78.25;98516.59;4951082;28;20037;-66
2022/05/06 10:15:25;;;;;;;0.30;0.22;;;;;;;9.08;78.97;98526.38;4951310;29;20057;-64
2022/05/06 10:17:58;;;;;;;0.10;0.10;;;;;;;8.83;79.64;98525.66;4950808;29;20038;-65
2022/05/06 10:20:36;;;;;;;0.20;0.20;;;;;;;9.01;80.41;98539.31;4950695;28;20467;-61
2022/05/06 10:23:11;;;;;;;0.38;0.38;;;;;;;9.05;79.91;98535.03;4949835;29;20510;-63
2022/05/06 10:25:40;;;;;;;0.20;0.20;;;;;;;8.84;80.34;98547.31;4951096;29;20035;-63
2022/05/06 10:34:14;;;;;;;0.30;0.30;;;;;;;8.85;79.95;98570.03;4949849;29;20109;-62
2022/05/06 10:36:53;;;;;;;0.10;0.10;;;;;;;8.81;79.54;98574.34;4950257;29;20054;-62
2022/05/06 10:39:26;;;;;;;0.40;0.40;;;;;;;8.94;79.23;98552.25;4950575;29;20446;-62
2022/05/06 10:42:12;;;;;;;0.17;0.17;;;;;;;9.10;79.10;98557.09;4950716;28;20032;-63
2022/05/06 10:44:39;;;;;;;0.38;0.25;;;;;;;9.16;78.66;98571.78;4950762;29;20042;-62
2022/05/06 10:47:11;;;;;;;0.20;0.20;;;;;;;9.11;78.44;98567.00;4950847;28;20035;-64
2022/05/06 10:49:39;;;;;;;0.20;0.20;;;;;;;9.02;78.56;98568.34;4950690;29;20564;-65
2022/05/06 10:52:14;;;;;;;0.20;0.20;;;;;;;8.77;79.08;98574.78;4950615;29;20514;-61
2022/05/06 10:54:49;;;;;;;0.20;0.20;;;;;;;8.40;79.89;98582.94;4950833;29;20047;-61
2022/05/06 10:57:16;;;;;;;0.30;0.30;;;;;;;8.13;80.56;98579.66;4950628;28;20039;-62
2022/05/06 10:59:57;;;;;;;0.22;0.22;;;;;;;7.97;81.18;98591.97;4951146;28;20047;-64
2022/05/06 11:02:24;;;;;;;0.20;0.20;;;;;;;7.82;81.68;98586.03;4950994;29;20409;-63
2022/05/06 11:04:51;;;;;;;0.52;0.52;;;;;;;7.88;81.72;98591.41;4951113;28;20031;-60
2022/05/06 11:07:17;;;;;;;0.20;0.20;;;;;;;8.12;81.32;98583.44;4950635;29;20114;-63
2022/05/06 11:09:43;;;;;;;0.20;0.20;;;;;;;8.37;80.44;98577.91;4965794;28;20035;-61
2022/05/06 11:12:09;;;;;;;0.30;0.30;;;;;;;8.50;79.57;98607.09;4950729;28;20037;-61
2022/05/06 11:14:35;;;;;;;0.20;0.20;;;;;;;8.50;79.13;98607.09;4950739;28;20121;-63
2022/05/06 11:17:17;;;;;;;0.25;0.25;;;;;;;8.35;79.04;98599.22;4949184;28;20067;-64
2022/05/06 11:19:43;;;;;;;0.35;0.35;;;;;;;8.05;79.25;98599.06;4950495;29;20027;-62
2022/05/06 11:22:09;;;;;;;0.10;0.10;;;;;;;7.68;79.65;98597.03;4950689;28;20516;-62
2022/05/06 11:24:36;;;;;;;0.10;0.10;;;;;;;7.45;80.28;98591.31;4954034;28;20087;-62
2022/05/06 11:27:30;;;;;;;0.20;0.20;;;;;;;7.36;80.43;98604.38;4953381;28;20525;-64
2022/05/06 11:29:59;;;;;;;0.32;0.32;;;;;;;7.26;80.46;98604.88;4944296;28;20509;-62
2022/05/06 11:32:29;;;;;;;0.10;0.10;;;;;;;7.21;80.62;98612.88;4953777;29;20415;-63
2022/05/06 11:35:01;;;;;;;3.00;0.50;;;;;;;7.21;80.60;98628.44;4953916;28;20046;-62
2022/05/06 11:37:32;;;;;;;0.17;0.17;;;;;;;7.21;80.51;98623.81;4954398;28;20054;-62
2022/05/06 11:42:42;;;;;;;0.23;0.23;;;;;;;7.32;79.97;98642.25;4955240;29;20038;-64
2022/05/06 11:48:06;;;;;;;0.52;0.52;;;;;;;7.79;78.99;98633.75;4954637;29;20039;-64
2022/05/06 11:50:33;;;;;;;0.30;0.30;;;;;;;7.77;78.45;98624.09;4953931;28;20121;-61
2022/05/06 11:52:59;;;;;;;0.30;0.30;;;;;;;7.66;78.79;98651.09;4954386;28;20114;-61
2022/05/06 11:55:26;;;;;;;9.50;0.60;;;;;;;7.58;78.94;98647.78;4954887;28;20040;-62
2022/05/06 11:57:52;;;;;;;4.80;0.30;;;;;;;7.42;79.04;98638.19;4954796;29;20062;-62
2022/05/06 12:00:20;;;;;;;0.10;0.10;;;;;;;7.18;79.29;98641.47;4954760;29;20035;-62
2022/05/06 12:02:51;;;;;;;0.10;0.10;;;;;;;7.04;79.59;98663.56;4954591;29;20450;-63
2022/05/06 12:05:19;;;;;;;0.40;0.40;;;;;;;6.86;79.79;98656.94;4954404;29;20394;-63
2022/05/06 12:07:49;;;;;;;0.10;0.10;;;;;;;6.69;79.89;98674.81;4954595;29;20038;-64
2022/05/06 12:10:29;;;;;;;0.65;0.52;;;;;;;6.55;79.94;98684.91;4954964;29;20035;-62
2022/05/06 12:12:56;;;;;;;0.15;0.15;;;;;;;6.48;80.20;98683.03;4954429;28;20062;-64
2022/05/06 12:15:32;;;;;;;0.20;0.20;;;;;;;6.51;79.91;98673.59;4951914;29;20039;-65
2022/05/06 12:18:10;;;;;;;0.80;0.38;;;;;;;6.78;78.99;98696.19;4953852;28;20379;-66
2022/05/06 12:20:41;;;;;;;0.35;0.35;;;;;;;6.95;78.41;98691.13;4953642;28;20039;-67
2022/05/06 12:23:08;;;;;;;0.10;0.10;;;;;;;7.01;78.03;98682.06;4952623;28;20143;-64
2022/05/06 12:25:35;;;;;;;1.45;0.88;;;;;;;6.86;78.35;98692.41;4954530;29;20122;-65
2022/05/06 12:28:04;;;;;;;0.68;0.65;;;;;;;6.73;78.49;98697.88;4951705;29;20035;-64
2022/05/06 12:30:31;;;;;;;0.40;0.35;;;;;;;6.65;78.90;98702.53;4953789;29;20039;-64
2022/05/06 12:33:04;;;;;;;0.30;0.30;;;;;;;6.70;78.90;98701.88;4954386;28;20471;-63
2022/05/06 12:35:30;;;;;;;0.60;0.43;;;;;;;6.82;78.61;98702.06;4953024;28;20035;-62
2022/05/06 12:38:00;;;;;;;0.77;0.68;;;;;;;7.01;78.47;98705.81;4952035;29;20051;-64
2022/05/06 12:40:33;;;;;;;0.20;0.20;;;;;;;7.23;77.58;98719.16;4949918;29;20354;-64